createdAt,value
2022-09-01T00:00:57.585Z,99172.78
2022-09-01T00:04:10.453Z,99167.39
2022-09-01T00:10:27.676Z,99171.72
2022-09-01T00:13:39.524Z,99169.38
2022-09-01T00:16:51.771Z,99171.20
2022-09-01T00:20:03.460Z,99164.38
2022-09-01T00:23:15.324Z,99155.55
2022-09-01T00:26:27.616Z,99158.69
2022-09-01T00:29:43.327Z,99160.41
2022-09-01T00:32:54.891Z,99162.44
2022-09-01T00:36:08.034Z,99168.37
2022-09-01T00:39:20.369Z,99173.53
2022-09-01T00:42:32.749Z,99160.52
2022-09-01T00:45:44.489Z,99163.02
2022-09-01T00:49:00.834Z,99165.02
2022-09-01T00:52:18.558Z,99149.61
2022-09-01T00:55:35.347Z,99165.02
2022-09-01T00:58:47.291Z,99148.55
2022-09-01T01:01:59.496Z,99159.62
2022-09-01T01:05:15.215Z,99165.97
2022-09-01T01:08:33.993Z,99158.13
2022-09-01T01:11:47.530Z,99156.86
2022-09-01T01:14:59.289Z,99164.16
2022-09-01T01:18:11.183Z,99154.63
2022-09-01T01:21:42.780Z,99162.73
2022-09-01T01:24:55.817Z,99163.71
2022-09-01T01:28:22.425Z,99162.41
2022-09-01T01:31:36.524Z,99166.91
2022-09-01T01:34:48.847Z,99169.51
2022-09-01T01:38:01.059Z,99165.70
2022-09-01T01:41:13.656Z,99167.06
2022-09-01T01:44:29.633Z,99156.55
2022-09-01T01:47:44.175Z,99151.66
2022-09-01T01:50:59.568Z,99160.69
2022-09-01T01:54:12.807Z,99158.76
2022-09-01T01:57:24.313Z,99157.48
2022-09-01T02:00:38.508Z,99157.34
2022-09-01T02:03:52.501Z,99143.77
2022-09-01T02:07:04.386Z,99164.75
2022-09-01T02:10:16.713Z,99169.92
2022-09-01T02:13:31.098Z,99160.55
2022-09-01T02:16:43.962Z,99169.23
2022-09-01T02:19:57.640Z,99173.42
2022-09-01T02:23:12.445Z,99170.63
2022-09-01T02:26:25.186Z,99173.81
2022-09-01T02:29:40.209Z,99168.39
2022-09-01T02:32:50.795Z,99157.84
2022-09-01T02:36:06.433Z,99161.59
2022-09-01T02:39:19.949Z,99172.85
2022-09-01T02:42:32.095Z,99164.69
2022-09-01T02:45:44.919Z,99165.91
2022-09-01T02:48:57.577Z,99167.70
2022-09-01T02:52:10.347Z,99170.37
2022-09-01T02:55:22.781Z,99171.66
2022-09-01T02:58:38.960Z,99160.36
2022-09-01T03:01:52.577Z,99161.33
2022-09-01T03:05:05.928Z,99153.58
2022-09-01T03:08:19.076Z,99153.07
2022-09-01T03:11:33.115Z,99156.64
2022-09-01T03:14:45.016Z,99150.41
2022-09-01T03:17:59.036Z,99147.73
2022-09-01T03:21:13.874Z,99150.48
2022-09-01T03:24:26.806Z,99147.50
2022-09-01T03:27:38.344Z,99149.03
2022-09-01T03:30:57.728Z,99146.89
2022-09-01T03:34:12.635Z,99137.44
2022-09-01T03:37:26.946Z,99151.86
2022-09-01T03:40:42.754Z,99151.30
2022-09-01T03:43:56.174Z,99165.41
2022-09-01T03:47:09.716Z,99160.23
2022-09-01T03:50:25.869Z,99161.42
2022-09-01T03:53:42.052Z,99166.13
2022-09-01T03:56:55.051Z,99167.20
2022-09-01T04:00:11.582Z,99172.63
2022-09-01T04:03:28.816Z,99164.16
2022-09-01T04:06:40.148Z,99165.69
2022-09-01T04:09:52.772Z,99167.54
2022-09-01T04:13:05.329Z,99165.00
2022-09-01T04:16:38.483Z,99175.77
2022-09-01T04:19:50.397Z,99168.58
2022-09-01T04:23:04.791Z,99168.95
2022-09-01T04:26:20.542Z,99170.78
2022-09-01T04:29:34.735Z,99177.84
2022-09-01T04:32:48.177Z,99181.10
2022-09-01T04:36:00.800Z,99183.08
2022-09-01T04:39:13.803Z,99184.46
2022-09-01T04:42:29.428Z,99183.08
2022-09-01T04:45:44.364Z,99157.75
2022-09-01T04:48:59.784Z,99182.92
2022-09-01T04:52:15.198Z,99192.30
2022-09-01T04:55:29.911Z,99188.66
2022-09-01T04:58:42.569Z,99179.98
2022-09-01T05:01:55.699Z,99180.08
2022-09-01T05:05:10.054Z,99181.31
2022-09-01T05:08:25.217Z,99184.66
2022-09-01T05:11:41.375Z,99188.31
2022-09-01T05:14:56.100Z,99188.53
2022-09-01T05:18:13.209Z,99186.56
2022-09-01T05:21:29.874Z,99189.32
2022-09-01T05:24:43.688Z,99183.39
2022-09-01T05:27:55.830Z,99184.57
2022-09-01T05:31:08.690Z,99168.41
2022-09-01T05:34:24.615Z,99182.80
2022-09-01T05:37:37.522Z,99179.37
2022-09-01T05:40:53.336Z,99185.39
2022-09-01T05:44:07.213Z,99186.64
2022-09-01T05:47:21.179Z,99189.52
2022-09-01T05:50:35.471Z,99196.55
2022-09-01T05:53:47.295Z,99191.36
2022-09-01T05:57:23.284Z,99190.22
2022-09-01T06:00:17.990Z,99184.84
2022-09-01T06:03:33.091Z,99187.91
2022-09-01T06:07:08.407Z,99191.28
2022-09-01T06:10:06.389Z,99198.05
2022-09-01T06:13:21.124Z,99191.04
2022-09-01T06:16:36.109Z,99185.10
2022-09-01T06:19:49.065Z,99186.39
2022-09-01T06:22:59.832Z,99178.90
2022-09-01T06:26:12.763Z,99168.28
2022-09-01T06:29:26.757Z,99172.42
2022-09-01T06:32:42.413Z,99173.81
2022-09-01T06:35:55.984Z,99177.52
2022-09-01T06:39:08.566Z,99170.45
2022-09-01T06:51:25.124Z,99181.55
2022-09-01T06:54:41.515Z,99186.47
2022-09-01T07:01:46.087Z,99196.85
2022-09-01T07:05:00.449Z,99204.64
2022-09-01T07:08:19.223Z,99196.42
2022-09-01T07:18:07.040Z,99186.80
2022-09-01T07:24:34.724Z,99200.50
2022-09-01T07:27:50.875Z,99200.31
2022-09-01T07:48:36.015Z,99190.80
2022-09-01T07:51:36.003Z,99185.95
2022-09-01T07:54:48.768Z,99190.28
2022-09-01T07:58:00.982Z,99189.56
2022-09-01T08:01:18.857Z,99192.84
2022-09-01T08:04:34.440Z,99180.69
2022-09-01T08:07:54.336Z,99179.85
2022-09-01T08:11:04.901Z,99187.66
2022-09-01T08:14:18.203Z,99183.42
2022-09-01T08:17:34.635Z,99173.81
2022-09-01T08:20:47.406Z,99180.88
2022-09-01T08:24:02.513Z,99182.60
2022-09-01T08:27:16.387Z,99175.63
2022-09-01T08:30:28.471Z,99174.47
2022-09-01T08:33:41.048Z,99172.74
2022-09-01T08:36:54.209Z,99172.13
2022-09-01T08:40:07.635Z,99175.98
2022-09-01T08:43:29.157Z,99165.20
2022-09-01T08:46:46.952Z,99158.31
2022-09-01T08:50:00.247Z,99170.86
2022-09-01T08:53:21.035Z,99133.75
2022-09-01T08:56:35.561Z,99173.81
2022-09-01T08:59:47.749Z,99169.13
2022-09-01T09:03:18.475Z,99169.52
2022-09-01T09:06:36.708Z,99157.70
2022-09-01T09:09:54.353Z,99160.29
2022-09-01T09:13:16.724Z,99156.97
2022-09-01T09:16:34.323Z,99153.60
2022-09-01T09:19:49.091Z,99150.61
2022-09-01T09:23:02.154Z,99158.14
2022-09-01T09:26:22.255Z,99150.32
2022-09-01T09:29:32.405Z,99152.13
2022-09-01T09:33:30.864Z,99148.64
2022-09-01T09:36:39.039Z,99140.39
2022-09-01T09:39:52.268Z,99151.04
2022-09-01T09:43:11.992Z,99142.30
2022-09-01T09:46:38.421Z,99141.09
2022-09-01T09:49:53.247Z,99142.58
2022-09-01T09:56:28.775Z,99136.33
2022-09-01T09:59:58.695Z,99141.75
2022-09-01T10:03:10.199Z,99129.69
2022-09-01T10:09:49.246Z,99128.28
2022-09-01T10:13:03.190Z,99148.64
2022-09-01T10:16:24.185Z,99137.17
2022-09-01T10:19:40.452Z,99144.97
2022-09-01T10:22:54.991Z,99136.09
2022-09-01T10:26:12.234Z,99137.41
2022-09-01T10:32:37.883Z,99138.01
2022-09-01T10:35:49.170Z,99133.42
2022-09-01T10:39:06.143Z,99126.53
2022-09-01T10:42:24.285Z,99126.44
2022-09-01T10:45:44.620Z,99123.73
2022-09-01T10:49:03.232Z,99108.94
2022-09-01T10:52:14.332Z,99122.25
2022-09-01T10:55:32.571Z,99125.25
2022-09-01T11:02:28.160Z,99130.81
2022-09-01T11:05:33.469Z,99138.19
2022-09-01T12:24:25.560Z,99102.34
2022-09-01T13:08:34.569Z,99080.75
2022-09-01T13:20:47.015Z,99064.30
2022-09-01T14:32:50.373Z,99085.28
2022-09-01T14:39:07.296Z,99044.48
2022-09-01T15:29:44.343Z,99067.39
2022-09-01T15:32:59.195Z,99072.16
2022-09-01T15:36:24.819Z,99077.52
2022-09-01T15:39:38.552Z,99083.77
2022-09-01T15:42:51.017Z,99092.25
2022-09-01T15:46:06.525Z,99089.34
2022-09-01T15:49:18.601Z,99081.45
2022-09-01T15:52:30.593Z,99085.75
2022-09-01T15:55:47.070Z,99077.86
2022-09-01T16:02:39.153Z,99075.69
2022-09-01T16:05:50.808Z,99082.89
2022-09-01T16:13:02.980Z,99093.25
2022-09-01T16:16:26.840Z,99093.66
2022-09-01T16:19:49.481Z,99096.08
2022-09-01T16:22:56.128Z,99090.59
2022-09-01T16:26:08.031Z,99098.77
2022-09-01T16:29:45.082Z,99104.94
2022-09-01T16:36:21.225Z,99112.14
2022-09-01T16:39:41.608Z,99108.31
2022-09-01T16:43:00.520Z,99111.17
2022-09-01T16:46:32.435Z,99111.13
2022-09-01T17:40:07.407Z,99136.41
2022-09-01T17:51:26.139Z,99159.47
2022-09-01T17:55:02.028Z,99161.55
2022-09-01T18:03:02.747Z,99165.73
2022-09-01T18:09:24.788Z,99173.68
2022-09-01T18:12:56.031Z,99182.53
2022-09-01T18:16:15.121Z,99190.66
2022-09-01T18:19:46.088Z,99197.41
2022-09-01T18:23:10.706Z,99200.63
2022-09-01T18:27:01.277Z,99207.27
2022-09-01T18:34:03.842Z,99215.56
2022-09-01T18:37:48.140Z,99204.31
2022-09-01T18:44:26.738Z,99206.06
2022-09-01T18:51:05.173Z,99210.84
2022-09-01T18:54:22.861Z,99215.77
2022-09-01T18:57:41.907Z,99206.91
2022-09-01T19:01:30.518Z,99214.86
2022-09-01T19:04:46.358Z,99225.25
2022-09-01T19:19:54.446Z,99239.06
2022-09-01T19:23:44.289Z,99236.73
2022-09-01T19:27:01.746Z,99242.09
2022-09-01T19:30:15.812Z,99236.56
2022-09-01T19:33:37.630Z,99245.59
2022-09-01T19:36:51.393Z,99248.93
2022-09-01T19:40:03.994Z,99241.88
2022-09-01T19:43:21.393Z,99252.94
2022-09-01T19:46:41.484Z,99254.11
2022-09-01T19:49:59.912Z,99247.86
2022-09-01T19:53:19.389Z,99245.16
2022-09-01T19:56:39.819Z,99251.03
2022-09-01T20:00:05.967Z,99247.00
2022-09-01T20:03:23.918Z,99250.86
2022-09-01T20:06:41.439Z,99255.51
2022-09-01T20:09:59.626Z,99257.44
2022-09-01T20:13:30.618Z,99259.81
2022-09-01T20:16:48.098Z,99263.47
2022-09-01T20:20:08.230Z,99265.44
2022-09-01T20:23:27.613Z,99260.05
2022-09-01T20:26:46.982Z,99256.82
2022-09-01T20:30:05.039Z,99265.02
2022-09-01T20:33:24.543Z,99268.63
2022-09-01T20:36:43.633Z,99275.78
2022-09-01T20:40:05.792Z,99277.45
2022-09-01T20:43:24.710Z,99272.27
2022-09-01T20:46:37.158Z,99275.56
2022-09-01T20:49:49.718Z,99277.20
2022-09-01T20:53:14.859Z,99285.69
2022-09-01T20:56:37.523Z,99267.44
2022-09-01T20:59:54.914Z,99277.77
2022-09-01T21:03:14.594Z,99279.54
2022-09-01T21:06:35.422Z,99272.47
2022-09-01T21:10:00.289Z,99278.27
2022-09-01T21:13:24.782Z,99284.91
2022-09-01T21:16:43.072Z,99273.14
2022-09-01T21:20:04.474Z,99284.73
2022-09-01T21:23:19.234Z,99296.64
2022-09-01T21:26:31.870Z,99293.44
2022-09-01T21:29:54.440Z,99299.92
2022-09-01T21:33:06.315Z,99293.89
2022-09-01T21:36:18.518Z,99294.98
2022-09-01T21:39:30.200Z,99300.61
2022-09-01T21:42:46.376Z,99300.84
2022-09-01T21:45:58.401Z,99295.34
2022-09-01T21:49:10.595Z,99294.25
2022-09-01T21:52:22.463Z,99291.45
2022-09-01T21:55:34.715Z,99304.11
2022-09-01T21:58:49.868Z,99302.48
2022-09-01T22:02:01.467Z,99297.15
2022-09-01T22:05:14.996Z,99298.59
2022-09-01T22:08:27.715Z,99288.95
2022-09-01T22:11:40.995Z,99295.42
2022-09-01T22:14:52.523Z,99303.36
2022-09-01T22:18:04.980Z,99306.31
2022-09-01T22:21:18.627Z,99299.59
2022-09-01T22:24:30.325Z,99300.28
2022-09-01T22:27:42.215Z,99301.72
2022-09-01T22:30:55.719Z,99308.38
2022-09-01T22:34:08.398Z,99307.38
2022-09-01T22:37:20.021Z,99302.20
2022-09-01T22:40:31.821Z,99294.36
2022-09-01T22:43:44.359Z,99307.97
2022-09-01T22:46:57.158Z,99306.58
2022-09-01T22:50:11.629Z,99312.38
2022-09-01T22:53:26.560Z,99308.44
2022-09-01T22:56:41.792Z,99300.44
2022-09-01T22:59:53.309Z,99300.29
2022-09-01T23:03:04.967Z,99297.23
2022-09-01T23:06:27.795Z,99301.17
2022-09-01T23:09:33.627Z,99298.81
2022-09-01T23:12:45.860Z,99301.48
2022-09-01T23:15:57.784Z,99295.02
2022-09-01T23:19:10.576Z,99298.41
2022-09-01T23:22:22.553Z,99296.17
2022-09-01T23:25:34.736Z,99304.17
2022-09-01T23:28:49.008Z,99305.44
2022-09-01T23:32:01.268Z,99303.19
2022-09-01T23:35:16.516Z,99297.18
2022-09-01T23:38:30.720Z,99300.14
2022-09-01T23:41:44.352Z,99312.77
2022-09-01T23:44:56.858Z,99305.73
2022-09-01T23:48:10.003Z,99304.77
2022-09-01T23:51:23.681Z,99303.52
2022-09-01T23:54:36.401Z,99293.28
2022-09-01T23:57:49.385Z,99297.20
